sensor_id;sensor_type;location;lat;lon;timestamp;P1;durP1;ratioP1;P2;durP2;ratioP2
41446;SDS011;27185;52.040;4.490;2024-03-02T00:01:43;1.75;;;0.20;;
41446;SDS011;27185;52.040;4.490;2024-03-02T00:04:29;2.15;;;0.57;;
41446;SDS011;27185;52.040;4.490;2024-03-02T00:07:22;0.50;;;0.20;;
41446;SDS011;27185;52.040;4.490;2024-03-02T00:10:14;0.43;;;0.20;;
41446;SDS011;27185;52.040;4.490;2024-03-02T00:13:13;1.17;;;0.15;;
41446;SDS011;27185;52.040;4.490;2024-03-02T00:16:08;2.28;;;0.40;;
41446;SDS011;27185;52.040;4.490;2024-03-02T00:19:01;1.30;;;0.20;;
41446;SDS011;27185;52.040;4.490;2024-03-02T00:21:55;3.63;;;0.30;;
41446;SDS011;27185;52.040;4.490;2024-03-02T00:24:44;1.23;;;0.30;;
41446;SDS011;27185;52.040;4.490;2024-03-02T00:27:35;2.13;;;0.30;;
41446;SDS011;27185;52.040;4.490;2024-03-02T00:34:10;1.02;;;0.38;;
41446;SDS011;27185;52.040;4.490;2024-03-02T00:37:10;2.10;;;0.43;;
41446;SDS011;27185;52.040;4.490;2024-03-02T00:46:24;1.27;;;0.30;;
41446;SDS011;27185;52.040;4.490;2024-03-02T00:52:08;3.33;;;0.40;;
41446;SDS011;27185;52.040;4.490;2024-03-02T00:55:00;1.05;;;0.40;;
41446;SDS011;27185;52.040;4.490;2024-03-02T00:58:01;1.35;;;0.40;;
41446;SDS011;27185;52.040;4.490;2024-03-02T01:00:54;1.17;;;0.45;;
41446;SDS011;27185;52.040;4.490;2024-03-02T01:03:40;1.45;;;0.30;;
41446;SDS011;27185;52.040;4.490;2024-03-02T01:06:32;3.70;;;0.43;;
41446;SDS011;27185;52.040;4.490;2024-03-02T01:09:24;0.75;;;0.30;;
41446;SDS011;27185;52.040;4.490;2024-03-02T01:15:03;0.77;;;0.40;;
41446;SDS011;27185;52.040;4.490;2024-03-02T01:17:54;0.70;;;0.38;;
41446;SDS011;27185;52.040;4.490;2024-03-02T01:20:43;0.80;;;0.30;;
41446;SDS011;27185;52.040;4.490;2024-03-02T01:23:39;2.83;;;0.30;;
41446;SDS011;27185;52.040;4.490;2024-03-02T01:26:16;0.85;;;0.30;;
41446;SDS011;27185;52.040;4.490;2024-03-02T01:29:08;0.95;;;0.20;;
41446;SDS011;27185;52.040;4.490;2024-03-02T01:31:57;2.28;;;0.30;;
41446;SDS011;27185;52.040;4.490;2024-03-02T01:34:43;0.60;;;0.30;;
41446;SDS011;27185;52.040;4.490;2024-03-02T01:37:34;1.85;;;0.32;;
41446;SDS011;27185;52.040;4.490;2024-03-02T01:40:26;1.75;;;0.30;;
41446;SDS011;27185;52.040;4.490;2024-03-02T01:43:13;0.50;;;0.28;;
41446;SDS011;27185;52.040;4.490;2024-03-02T01:45:59;0.95;;;0.40;;
41446;SDS011;27185;52.040;4.490;2024-03-02T01:48:48;0.98;;;0.50;;
41446;SDS011;27185;52.040;4.490;2024-03-02T01:51:45;2.13;;;1.02;;
41446;SDS011;27185;52.040;4.490;2024-03-02T01:54:31;1.45;;;0.73;;
41446;SDS011;27185;52.040;4.490;2024-03-02T01:57:20;2.15;;;0.80;;
41446;SDS011;27185;52.040;4.490;2024-03-02T02:00:09;1.95;;;1.08;;
41446;SDS011;27185;52.040;4.490;2024-03-02T02:02:59;2.95;;;1.40;;
41446;SDS011;27185;52.040;4.490;2024-03-02T02:05:45;2.00;;;1.08;;
41446;SDS011;27185;52.040;4.490;2024-03-02T02:08:33;2.85;;;1.63;;
41446;SDS011;27185;52.040;4.490;2024-03-02T02:11:22;2.10;;;1.45;;
41446;SDS011;27185;52.040;4.490;2024-03-02T02:14:11;2.85;;;1.50;;
41446;SDS011;27185;52.040;4.490;2024-03-02T02:17:03;3.25;;;1.38;;
41446;SDS011;27185;52.040;4.490;2024-03-02T02:19:49;3.40;;;1.60;;
41446;SDS011;27185;52.040;4.490;2024-03-02T02:22:36;4.63;;;2.10;;
41446;SDS011;27185;52.040;4.490;2024-03-02T02:25:22;3.88;;;1.50;;
41446;SDS011;27185;52.040;4.490;2024-03-02T02:28:10;2.38;;;1.20;;
41446;SDS011;27185;52.040;4.490;2024-03-02T02:30:56;2.80;;;1.10;;
41446;SDS011;27185;52.040;4.490;2024-03-02T02:33:45;2.50;;;1.10;;
41446;SDS011;27185;52.040;4.490;2024-03-02T02:36:32;2.20;;;0.95;;
41446;SDS011;27185;52.040;4.490;2024-03-02T02:39:24;4.15;;;0.80;;
41446;SDS011;27185;52.040;4.490;2024-03-02T02:42:10;1.67;;;0.80;;
41446;SDS011;27185;52.040;4.490;2024-03-02T02:44:56;2.97;;;1.25;;
41446;SDS011;27185;52.040;4.490;2024-03-02T02:47:48;2.03;;;0.80;;
41446;SDS011;27185;52.040;4.490;2024-03-02T02:50:34;3.25;;;0.80;;
41446;SDS011;27185;52.040;4.490;2024-03-02T02:53:20;1.27;;;0.55;;
41446;SDS011;27185;52.040;4.490;2024-03-02T02:56:06;1.73;;;0.60;;
41446;SDS011;27185;52.040;4.490;2024-03-02T02:58:52;1.88;;;0.70;;
41446;SDS011;27185;52.040;4.490;2024-03-02T03:01:37;2.58;;;0.70;;
41446;SDS011;27185;52.040;4.490;2024-03-02T03:04:23;2.00;;;0.70;;
41446;SDS011;27185;52.040;4.490;2024-03-02T03:07:09;1.73;;;0.60;;
41446;SDS011;27185;52.040;4.490;2024-03-02T03:09:55;1.48;;;0.60;;
41446;SDS011;27185;52.040;4.490;2024-03-02T03:12:40;1.00;;;0.50;;
41446;SDS011;27185;52.040;4.490;2024-03-02T03:15:27;1.58;;;0.65;;
41446;SDS011;27185;52.040;4.490;2024-03-02T03:18:13;1.90;;;0.63;;
41446;SDS011;27185;52.040;4.490;2024-03-02T03:20:59;1.98;;;0.60;;
41446;SDS011;27185;52.040;4.490;2024-03-02T03:23:44;2.80;;;0.50;;
41446;SDS011;27185;52.040;4.490;2024-03-02T03:26:30;2.38;;;0.70;;
41446;SDS011;27185;52.040;4.490;2024-03-02T03:29:16;2.17;;;0.75;;
41446;SDS011;27185;52.040;4.490;2024-03-02T03:32:01;2.83;;;0.70;;
41446;SDS011;27185;52.040;4.490;2024-03-02T03:34:48;2.72;;;0.70;;
41446;SDS011;27185;52.040;4.490;2024-03-02T03:37:34;1.77;;;0.70;;
41446;SDS011;27185;52.040;4.490;2024-03-02T03:40:19;1.40;;;0.50;;
41446;SDS011;27185;52.040;4.490;2024-03-02T03:43:05;2.97;;;0.80;;
41446;SDS011;27185;52.040;4.490;2024-03-02T03:45:51;2.03;;;0.73;;
41446;SDS011;27185;52.040;4.490;2024-03-02T03:48:36;2.65;;;0.80;;
41446;SDS011;27185;52.040;4.490;2024-03-02T03:51:22;3.25;;;0.63;;
41446;SDS011;27185;52.040;4.490;2024-03-02T03:54:08;1.42;;;0.60;;
41446;SDS011;27185;52.040;4.490;2024-03-02T03:59:41;1.60;;;0.70;;
41446;SDS011;27185;52.040;4.490;2024-03-02T04:02:27;1.45;;;0.50;;
41446;SDS011;27185;52.040;4.490;2024-03-02T04:05:13;2.03;;;0.80;;
41446;SDS011;27185;52.040;4.490;2024-03-02T04:07:59;1.83;;;0.60;;
41446;SDS011;27185;52.040;4.490;2024-03-02T04:10:45;1.38;;;0.60;;
41446;SDS011;27185;52.040;4.490;2024-03-02T04:13:31;3.40;;;0.77;;
41446;SDS011;27185;52.040;4.490;2024-03-02T04:16:17;1.45;;;0.63;;
41446;SDS011;27185;52.040;4.490;2024-03-02T04:19:03;2.63;;;0.68;;
41446;SDS011;27185;52.040;4.490;2024-03-02T04:21:49;1.67;;;0.75;;
41446;SDS011;27185;52.040;4.490;2024-03-02T04:24:34;2.15;;;0.70;;
41446;SDS011;27185;52.040;4.490;2024-03-02T04:27:20;4.28;;;1.40;;
41446;SDS011;27185;52.040;4.490;2024-03-02T04:30:06;2.50;;;0.75;;
41446;SDS011;27185;52.040;4.490;2024-03-02T04:32:52;3.42;;;0.90;;
41446;SDS011;27185;52.040;4.490;2024-03-02T04:35:37;1.05;;;0.50;;
41446;SDS011;27185;52.040;4.490;2024-03-02T04:38:23;3.20;;;0.60;;
41446;SDS011;27185;52.040;4.490;2024-03-02T04:41:08;1.42;;;0.50;;
41446;SDS011;27185;52.040;4.490;2024-03-02T04:43:57;2.72;;;0.50;;
41446;SDS011;27185;52.040;4.490;2024-03-02T04:46:43;1.80;;;0.50;;
41446;SDS011;27185;52.040;4.490;2024-03-02T04:49:28;1.02;;;0.50;;
41446;SDS011;27185;52.040;4.490;2024-03-02T04:52:15;4.03;;;0.65;;
41446;SDS011;27185;52.040;4.490;2024-03-02T04:55:00;0.80;;;0.40;;
41446;SDS011;27185;52.040;4.490;2024-03-02T04:58:02;3.08;;;0.60;;
41446;SDS011;27185;52.040;4.490;2024-03-02T05:00:47;1.65;;;0.50;;
41446;SDS011;27185;52.040;4.490;2024-03-02T05:03:33;2.75;;;0.60;;
41446;SDS011;27185;52.040;4.490;2024-03-02T05:06:19;4.15;;;0.80;;
41446;SDS011;27185;52.040;4.490;2024-03-02T05:09:05;1.83;;;0.65;;
41446;SDS011;27185;52.040;4.490;2024-03-02T05:11:52;2.75;;;0.70;;
41446;SDS011;27185;52.040;4.490;2024-03-02T05:14:57;2.10;;;0.60;;
41446;SDS011;27185;52.040;4.490;2024-03-02T05:17:43;3.88;;;0.90;;
41446;SDS011;27185;52.040;4.490;2024-03-02T05:20:28;2.03;;;0.65;;
41446;SDS011;27185;52.040;4.490;2024-03-02T05:23:14;3.92;;;0.60;;
41446;SDS011;27185;52.040;4.490;2024-03-02T05:25:59;2.05;;;0.75;;
41446;SDS011;27185;52.040;4.490;2024-03-02T05:28:45;1.85;;;0.60;;
41446;SDS011;27185;52.040;4.490;2024-03-02T05:31:31;1.52;;;0.63;;
41446;SDS011;27185;52.040;4.490;2024-03-02T05:34:16;1.13;;;0.40;;
41446;SDS011;27185;52.040;4.490;2024-03-02T05:37:03;1.55;;;0.50;;
41446;SDS011;27185;52.040;4.490;2024-03-02T05:39:49;1.67;;;0.50;;
41446;SDS011;27185;52.040;4.490;2024-03-02T05:42:34;1.25;;;0.40;;
41446;SDS011;27185;52.040;4.490;2024-03-02T05:45:20;1.70;;;0.65;;
41446;SDS011;27185;52.040;4.490;2024-03-02T05:48:06;1.77;;;0.50;;
41446;SDS011;27185;52.040;4.490;2024-03-02T05:50:52;3.08;;;0.45;;
41446;SDS011;27185;52.040;4.490;2024-03-02T05:53:38;2.17;;;0.65;;
41446;SDS011;27185;52.040;4.490;2024-03-02T05:56:24;1.52;;;0.38;;
41446;SDS011;27185;52.040;4.490;2024-03-02T05:59:09;1.65;;;0.40;;
41446;SDS011;27185;52.040;4.490;2024-03-02T06:01:58;1.98;;;0.40;;
41446;SDS011;27185;52.040;4.490;2024-03-02T06:04:43;2.08;;;0.43;;
41446;SDS011;27185;52.040;4.490;2024-03-02T06:07:29;3.13;;;0.65;;
41446;SDS011;27185;52.040;4.490;2024-03-02T06:10:15;4.32;;;0.50;;
41446;SDS011;27185;52.040;4.490;2024-03-02T06:13:01;2.08;;;0.40;;
41446;SDS011;27185;52.040;4.490;2024-03-02T06:15:46;2.63;;;0.50;;
41446;SDS011;27185;52.040;4.490;2024-03-02T06:18:32;3.83;;;0.73;;
41446;SDS011;27185;52.040;4.490;2024-03-02T06:21:18;3.17;;;0.50;;
41446;SDS011;27185;52.040;4.490;2024-03-02T06:24:03;1.38;;;0.40;;
41446;SDS011;27185;52.040;4.490;2024-03-02T06:26:49;0.93;;;0.30;;
41446;SDS011;27185;52.040;4.490;2024-03-02T06:29:35;2.78;;;0.50;;
41446;SDS011;27185;52.040;4.490;2024-03-02T06:32:20;4.00;;;0.40;;
41446;SDS011;27185;52.040;4.490;2024-03-02T06:35:06;3.40;;;0.40;;
41446;SDS011;27185;52.040;4.490;2024-03-02T06:37:55;1.58;;;0.40;;
41446;SDS011;27185;52.040;4.490;2024-03-02T06:40:40;0.98;;;0.30;;
41446;SDS011;27185;52.040;4.490;2024-03-02T06:43:26;2.83;;;0.40;;
41446;SDS011;27185;52.040;4.490;2024-03-02T06:46:11;2.83;;;0.40;;
41446;SDS011;27185;52.040;4.490;2024-03-02T06:48:59;1.30;;;0.35;;
41446;SDS011;27185;52.040;4.490;2024-03-02T06:51:47;1.10;;;0.43;;
41446;SDS011;27185;52.040;4.490;2024-03-02T06:54:33;1.25;;;0.40;;
41446;SDS011;27185;52.040;4.490;2024-03-02T06:57:19;2.05;;;0.40;;
41446;SDS011;27185;52.040;4.490;2024-03-02T07:00:05;4.85;;;0.50;;
41446;SDS011;27185;52.040;4.490;2024-03-02T07:02:53;4.93;;;0.57;;
41446;SDS011;27185;52.040;4.490;2024-03-02T07:05:39;3.47;;;0.47;;
41446;SDS011;27185;52.040;4.490;2024-03-02T07:08:25;2.45;;;0.70;;
41446;SDS011;27185;52.040;4.490;2024-03-02T07:11:10;4.65;;;0.52;;
41446;SDS011;27185;52.040;4.490;2024-03-02T07:13:56;1.77;;;0.57;;
41446;SDS011;27185;52.040;4.490;2024-03-02T07:16:42;1.42;;;0.40;;
41446;SDS011;27185;52.040;4.490;2024-03-02T07:19:28;1.67;;;0.40;;
41446;SDS011;27185;52.040;4.490;2024-03-02T07:22:13;3.97;;;0.73;;
41446;SDS011;27185;52.040;4.490;2024-03-02T07:24:59;2.50;;;0.50;;
41446;SDS011;27185;52.040;4.490;2024-03-02T07:27:45;2.35;;;0.50;;
41446;SDS011;27185;52.040;4.490;2024-03-02T07:30:31;2.67;;;0.45;;
41446;SDS011;27185;52.040;4.490;2024-03-02T07:33:16;2.75;;;0.50;;
41446;SDS011;27185;52.040;4.490;2024-03-02T07:36:02;4.78;;;0.55;;
41446;SDS011;27185;52.040;4.490;2024-03-02T07:38:48;0.98;;;0.30;;
41446;SDS011;27185;52.040;4.490;2024-03-02T07:41:35;2.38;;;0.50;;
41446;SDS011;27185;52.040;4.490;2024-03-02T07:44:21;2.67;;;0.38;;
41446;SDS011;27185;52.040;4.490;2024-03-02T07:47:06;2.75;;;0.50;;
41446;SDS011;27185;52.040;4.490;2024-03-02T07:49:52;5.22;;;0.50;;
41446;SDS011;27185;52.040;4.490;2024-03-02T07:52:38;3.65;;;0.60;;
41446;SDS011;27185;52.040;4.490;2024-03-02T07:55:24;3.58;;;0.47;;
41446;SDS011;27185;52.040;4.490;2024-03-02T07:58:10;2.78;;;0.73;;
41446;SDS011;27185;52.040;4.490;2024-03-02T08:00:56;1.63;;;0.60;;
41446;SDS011;27185;52.040;4.490;2024-03-02T08:03:43;1.88;;;0.60;;
41446;SDS011;27185;52.040;4.490;2024-03-02T08:06:35;3.00;;;0.60;;
41446;SDS011;27185;52.040;4.490;2024-03-02T08:09:21;2.60;;;0.57;;
41446;SDS011;27185;52.040;4.490;2024-03-02T08:12:07;3.65;;;0.50;;
41446;SDS011;27185;52.040;4.490;2024-03-02T08:14:53;2.42;;;0.40;;
41446;SDS011;27185;52.040;4.490;2024-03-02T08:17:39;5.40;;;0.50;;
41446;SDS011;27185;52.040;4.490;2024-03-02T08:20:30;1.65;;;0.55;;
41446;SDS011;27185;52.040;4.490;2024-03-02T08:23:16;2.40;;;0.47;;
41446;SDS011;27185;52.040;4.490;2024-03-02T08:26:02;2.33;;;0.40;;
41446;SDS011;27185;52.040;4.490;2024-03-02T08:28:49;6.25;;;0.60;;
41446;SDS011;27185;52.040;4.490;2024-03-02T08:31:34;3.97;;;0.63;;
41446;SDS011;27185;52.040;4.490;2024-03-02T08:34:20;3.75;;;0.60;;
41446;SDS011;27185;52.040;4.490;2024-03-02T08:37:06;2.97;;;0.60;;
41446;SDS011;27185;52.040;4.490;2024-03-02T08:39:52;13.75;;;0.93;;
41446;SDS011;27185;52.040;4.490;2024-03-02T08:42:37;4.38;;;0.65;;
41446;SDS011;27185;52.040;4.490;2024-03-02T08:45:23;3.97;;;0.63;;
41446;SDS011;27185;52.040;4.490;2024-03-02T08:48:09;5.47;;;0.70;;
41446;SDS011;27185;52.040;4.490;2024-03-02T08:50:55;3.35;;;0.60;;
41446;SDS011;27185;52.040;4.490;2024-03-02T08:53:40;4.93;;;0.70;;
41446;SDS011;27185;52.040;4.490;2024-03-02T08:56:27;3.30;;;0.70;;
41446;SDS011;27185;52.040;4.490;2024-03-02T08:59:13;2.42;;;0.52;;
41446;SDS011;27185;52.040;4.490;2024-03-02T09:01:58;3.55;;;0.60;;
41446;SDS011;27185;52.040;4.490;2024-03-02T09:04:44;5.90;;;0.60;;
41446;SDS011;27185;52.040;4.490;2024-03-02T09:07:30;6.30;;;0.85;;
41446;SDS011;27185;52.040;4.490;2024-03-02T09:10:15;1.52;;;0.60;;
41446;SDS011;27185;52.040;4.490;2024-03-02T09:13:01;3.88;;;0.70;;
41446;SDS011;27185;52.040;4.490;2024-03-02T09:15:47;3.35;;;0.80;;
41446;SDS011;27185;52.040;4.490;2024-03-02T09:18:33;3.20;;;0.60;;
41446;SDS011;27185;52.040;4.490;2024-03-02T09:21:19;4.07;;;0.60;;
41446;SDS011;27185;52.040;4.490;2024-03-02T09:24:04;3.00;;;0.70;;
41446;SDS011;27185;52.040;4.490;2024-03-02T09:26:51;3.88;;;0.80;;
41446;SDS011;27185;52.040;4.490;2024-03-02T09:29:37;2.00;;;0.60;;
41446;SDS011;27185;52.040;4.490;2024-03-02T09:32:23;5.78;;;0.80;;
41446;SDS011;27185;52.040;4.490;2024-03-02T09:35:09;5.18;;;1.30;;
41446;SDS011;27185;52.040;4.490;2024-03-02T09:37:55;2.75;;;0.63;;
41446;SDS011;27185;52.040;4.490;2024-03-02T09:40:41;2.85;;;0.60;;
41446;SDS011;27185;52.040;4.490;2024-03-02T09:43:27;4.00;;;0.77;;
41446;SDS011;27185;52.040;4.490;2024-03-02T09:46:13;3.97;;;1.08;;
41446;SDS011;27185;52.040;4.490;2024-03-02T09:49:00;3.22;;;0.50;;
41446;SDS011;27185;52.040;4.490;2024-03-02T09:51:47;3.97;;;0.80;;
41446;SDS011;27185;52.040;4.490;2024-03-02T09:54:33;5.75;;;0.70;;
41446;SDS011;27185;52.040;4.490;2024-03-02T09:57:19;6.30;;;0.70;;
41446;SDS011;27185;52.040;4.490;2024-03-02T10:00:05;5.30;;;0.98;;
41446;SDS011;27185;52.040;4.490;2024-03-02T10:02:51;3.58;;;0.65;;
41446;SDS011;27185;52.040;4.490;2024-03-02T10:05:37;4.57;;;1.02;;
41446;SDS011;27185;52.040;4.490;2024-03-02T10:08:23;5.45;;;0.70;;
41446;SDS011;27185;52.040;4.490;2024-03-02T10:11:09;4.25;;;0.57;;
41446;SDS011;27185;52.040;4.490;2024-03-02T10:14:11;4.47;;;0.70;;
41446;SDS011;27185;52.040;4.490;2024-03-02T10:17:02;5.60;;;0.75;;
41446;SDS011;27185;52.040;4.490;2024-03-02T10:19:51;4.05;;;0.95;;
41446;SDS011;27185;52.040;4.490;2024-03-02T10:22:37;4.60;;;0.90;;
41446;SDS011;27185;52.040;4.490;2024-03-02T10:25:30;2.97;;;0.50;;
41446;SDS011;27185;52.040;4.490;2024-03-02T10:28:19;5.82;;;0.65;;
41446;SDS011;27185;52.040;4.490;2024-03-02T10:31:05;5.03;;;0.82;;
41446;SDS011;27185;52.040;4.490;2024-03-02T10:33:51;5.35;;;0.60;;
41446;SDS011;27185;52.040;4.490;2024-03-02T10:36:37;5.43;;;0.90;;
41446;SDS011;27185;52.040;4.490;2024-03-02T10:39:25;5.72;;;0.73;;
41446;SDS011;27185;52.040;4.490;2024-03-02T10:42:11;6.53;;;0.80;;
41446;SDS011;27185;52.040;4.490;2024-03-02T10:44:59;6.82;;;0.93;;
41446;SDS011;27185;52.040;4.490;2024-03-02T10:47:46;4.03;;;0.70;;
41446;SDS011;27185;52.040;4.490;2024-03-02T10:50:32;3.50;;;0.50;;
41446;SDS011;27185;52.040;4.490;2024-03-02T10:53:18;4.35;;;0.50;;
41446;SDS011;27185;52.040;4.490;2024-03-02T10:56:04;4.30;;;0.90;;
41446;SDS011;27185;52.040;4.490;2024-03-02T11:02:07;2.65;;;0.52;;
41446;SDS011;27185;52.040;4.490;2024-03-02T11:04:57;3.53;;;0.60;;
41446;SDS011;27185;52.040;4.490;2024-03-02T11:07:49;5.28;;;0.77;;
41446;SDS011;27185;52.040;4.490;2024-03-02T11:10:45;3.55;;;0.90;;
41446;SDS011;27185;52.040;4.490;2024-03-02T11:13:36;3.78;;;0.50;;
41446;SDS011;27185;52.040;4.490;2024-03-02T11:16:27;8.90;;;0.95;;
41446;SDS011;27185;52.040;4.490;2024-03-02T11:19:18;4.78;;;1.00;;
41446;SDS011;27185;52.040;4.490;2024-03-02T11:22:04;2.83;;;0.50;;
41446;SDS011;27185;52.040;4.490;2024-03-02T11:24:51;4.55;;;0.65;;
41446;SDS011;27185;52.040;4.490;2024-03-02T11:33:22;6.18;;;0.85;;
41446;SDS011;27185;52.040;4.490;2024-03-02T11:36:09;2.63;;;0.57;;
41446;SDS011;27185;52.040;4.490;2024-03-02T11:38:55;3.17;;;0.50;;
41446;SDS011;27185;52.040;4.490;2024-03-02T11:41:41;2.95;;;0.45;;
41446;SDS011;27185;52.040;4.490;2024-03-02T11:44:27;3.53;;;0.43;;
41446;SDS011;27185;52.040;4.490;2024-03-02T11:47:14;6.47;;;0.63;;
41446;SDS011;27185;52.040;4.490;2024-03-02T11:50:01;3.58;;;0.47;;
41446;SDS011;27185;52.040;4.490;2024-03-02T11:52:46;5.15;;;0.70;;
41446;SDS011;27185;52.040;4.490;2024-03-02T11:55:33;6.20;;;0.70;;
41446;SDS011;27185;52.040;4.490;2024-03-02T11:58:24;2.30;;;0.40;;
41446;SDS011;27185;52.040;4.490;2024-03-02T12:01:11;2.67;;;0.45;;
41446;SDS011;27185;52.040;4.490;2024-03-02T12:03:58;4.07;;;0.43;;
41446;SDS011;27185;52.040;4.490;2024-03-02T12:06:44;4.22;;;0.70;;
41446;SDS011;27185;52.040;4.490;2024-03-02T12:09:32;4.97;;;0.55;;
41446;SDS011;27185;52.040;4.490;2024-03-02T12:12:17;2.40;;;0.43;;
41446;SDS011;27185;52.040;4.490;2024-03-02T12:15:07;2.88;;;0.40;;
41446;SDS011;27185;52.040;4.490;2024-03-02T12:17:56;4.82;;;0.60;;
41446;SDS011;27185;52.040;4.490;2024-03-02T12:20:43;4.22;;;0.40;;
41446;SDS011;27185;52.040;4.490;2024-03-02T12:23:28;1.83;;;0.32;;
41446;SDS011;27185;52.040;4.490;2024-03-02T12:26:14;4.07;;;0.63;;
41446;SDS011;27185;52.040;4.490;2024-03-02T12:29:00;2.38;;;0.50;;
41446;SDS011;27185;52.040;4.490;2024-03-02T12:31:47;2.92;;;0.50;;
41446;SDS011;27185;52.040;4.490;2024-03-02T12:34:39;4.00;;;0.60;;
41446;SDS011;27185;52.040;4.490;2024-03-02T12:37:25;3.83;;;0.70;;
41446;SDS011;27185;52.040;4.490;2024-03-02T12:40:13;3.13;;;0.60;;
41446;SDS011;27185;52.040;4.490;2024-03-02T12:43:00;3.70;;;0.60;;
41446;SDS011;27185;52.040;4.490;2024-03-02T12:45:46;5.25;;;0.55;;
41446;SDS011;27185;52.040;4.490;2024-03-02T12:48:32;3.05;;;0.50;;
41446;SDS011;27185;52.040;4.490;2024-03-02T12:51:18;2.85;;;0.50;;
41446;SDS011;27185;52.040;4.490;2024-03-02T12:54:04;4.65;;;0.68;;
41446;SDS011;27185;52.040;4.490;2024-03-02T12:56:50;2.97;;;0.63;;
41446;SDS011;27185;52.040;4.490;2024-03-02T12:59:36;4.40;;;0.60;;
41446;SDS011;27185;52.040;4.490;2024-03-02T13:02:22;4.72;;;0.60;;
41446;SDS011;27185;52.040;4.490;2024-03-02T13:05:07;3.80;;;0.50;;
41446;SDS011;27185;52.040;4.490;2024-03-02T13:07:56;4.80;;;0.47;;
41446;SDS011;27185;52.040;4.490;2024-03-02T13:10:42;3.22;;;0.60;;
41446;SDS011;27185;52.040;4.490;2024-03-02T13:13:30;4.43;;;0.65;;
41446;SDS011;27185;52.040;4.490;2024-03-02T13:16:16;3.10;;;0.45;;
41446;SDS011;27185;52.040;4.490;2024-03-02T13:19:07;3.65;;;0.50;;
41446;SDS011;27185;52.040;4.490;2024-03-02T13:21:53;3.65;;;0.68;;
41446;SDS011;27185;52.040;4.490;2024-03-02T13:24:38;4.55;;;0.60;;
41446;SDS011;27185;52.040;4.490;2024-03-02T13:27:27;3.03;;;0.60;;
41446;SDS011;27185;52.040;4.490;2024-03-02T13:30:12;4.97;;;0.80;;
41446;SDS011;27185;52.040;4.490;2024-03-02T13:32:58;1.92;;;0.40;;
41446;SDS011;27185;52.040;4.490;2024-03-02T13:35:44;3.22;;;0.50;;
41446;SDS011;27185;52.040;4.490;2024-03-02T13:38:29;3.67;;;0.47;;
41446;SDS011;27185;52.040;4.490;2024-03-02T13:41:15;4.10;;;0.77;;
41446;SDS011;27185;52.040;4.490;2024-03-02T13:44:01;4.97;;;0.60;;
41446;SDS011;27185;52.040;4.490;2024-03-02T13:46:47;3.88;;;0.40;;
41446;SDS011;27185;52.040;4.490;2024-03-02T13:49:33;4.68;;;0.50;;
41446;SDS011;27185;52.040;4.490;2024-03-02T13:52:20;5.07;;;0.80;;
41446;SDS011;27185;52.040;4.490;2024-03-02T13:55:06;2.83;;;0.60;;
41446;SDS011;27185;52.040;4.490;2024-03-02T13:57:52;4.35;;;0.60;;
41446;SDS011;27185;52.040;4.490;2024-03-02T14:00:38;2.97;;;0.52;;
41446;SDS011;27185;52.040;4.490;2024-03-02T14:03:24;3.65;;;0.40;;
41446;SDS011;27185;52.040;4.490;2024-03-02T14:06:12;2.03;;;0.40;;
41446;SDS011;27185;52.040;4.490;2024-03-02T14:08:58;2.45;;;0.32;;
41446;SDS011;27185;52.040;4.490;2024-03-02T14:11:44;4.88;;;0.77;;
41446;SDS011;27185;52.040;4.490;2024-03-02T14:14:30;2.88;;;0.60;;
41446;SDS011;27185;52.040;4.490;2024-03-02T14:17:16;4.40;;;0.50;;
41446;SDS011;27185;52.040;4.490;2024-03-02T14:20:02;2.63;;;0.50;;
41446;SDS011;27185;52.040;4.490;2024-03-02T14:22:49;4.32;;;0.77;;
41446;SDS011;27185;52.040;4.490;2024-03-02T14:25:35;3.50;;;0.40;;
41446;SDS011;27185;52.040;4.490;2024-03-02T14:28:21;3.08;;;0.35;;
41446;SDS011;27185;52.040;4.490;2024-03-02T14:31:06;1.90;;;0.30;;
41446;SDS011;27185;52.040;4.490;2024-03-02T14:33:52;3.03;;;0.30;;
41446;SDS011;27185;52.040;4.490;2024-03-02T14:36:39;3.47;;;0.60;;
41446;SDS011;27185;52.040;4.490;2024-03-02T14:39:26;2.92;;;0.40;;
41446;SDS011;27185;52.040;4.490;2024-03-02T14:42:12;2.95;;;0.40;;
41446;SDS011;27185;52.040;4.490;2024-03-02T14:44:57;3.75;;;0.40;;
41446;SDS011;27185;52.040;4.490;2024-03-02T14:47:43;4.43;;;0.50;;
41446;SDS011;27185;52.040;4.490;2024-03-02T14:50:30;3.17;;;0.53;;
41446;SDS011;27185;52.040;4.490;2024-03-02T14:53:16;4.15;;;0.50;;
41446;SDS011;27185;52.040;4.490;2024-03-02T14:56:03;2.65;;;0.40;;
41446;SDS011;27185;52.040;4.490;2024-03-02T14:58:50;2.92;;;0.50;;
41446;SDS011;27185;52.040;4.490;2024-03-02T15:01:36;4.15;;;0.70;;
41446;SDS011;27185;52.040;4.490;2024-03-02T15:04:21;5.20;;;0.70;;
41446;SDS011;27185;52.040;4.490;2024-03-02T15:07:07;1.45;;;0.30;;
41446;SDS011;27185;52.040;4.490;2024-03-02T15:09:53;4.28;;;0.73;;
41446;SDS011;27185;52.040;4.490;2024-03-02T15:12:39;6.40;;;0.82;;
41446;SDS011;27185;52.040;4.490;2024-03-02T15:15:25;3.00;;;0.50;;
41446;SDS011;27185;52.040;4.490;2024-03-02T15:18:11;4.32;;;0.60;;
41446;SDS011;27185;52.040;4.490;2024-03-02T15:20:57;3.10;;;0.55;;
41446;SDS011;27185;52.040;4.490;2024-03-02T15:23:42;3.50;;;0.45;;
41446;SDS011;27185;52.040;4.490;2024-03-02T15:26:28;2.63;;;0.47;;
41446;SDS011;27185;52.040;4.490;2024-03-02T15:29:13;4.10;;;0.45;;
41446;SDS011;27185;52.040;4.490;2024-03-02T15:31:59;7.88;;;0.68;;
41446;SDS011;27185;52.040;4.490;2024-03-02T15:34:45;1.80;;;0.40;;
41446;SDS011;27185;52.040;4.490;2024-03-02T15:37:30;4.80;;;0.40;;
41446;SDS011;27185;52.040;4.490;2024-03-02T15:40:19;3.75;;;0.55;;
41446;SDS011;27185;52.040;4.490;2024-03-02T15:43:07;4.35;;;0.60;;
41446;SDS011;27185;52.040;4.490;2024-03-02T15:45:53;4.22;;;0.60;;
41446;SDS011;27185;52.040;4.490;2024-03-02T15:48:39;3.17;;;0.47;;
41446;SDS011;27185;52.040;4.490;2024-03-02T15:51:24;3.13;;;0.40;;
41446;SDS011;27185;52.040;4.490;2024-03-02T15:54:10;2.25;;;0.50;;
41446;SDS011;27185;52.040;4.490;2024-03-02T15:56:56;1.92;;;0.32;;
41446;SDS011;27185;52.040;4.490;2024-03-02T15:59:45;2.50;;;0.40;;
41446;SDS011;27185;52.040;4.490;2024-03-02T16:02:30;3.25;;;0.65;;
41446;SDS011;27185;52.040;4.490;2024-03-02T16:05:17;1.73;;;0.30;;
41446;SDS011;27185;52.040;4.490;2024-03-02T16:08:03;5.45;;;0.50;;
41446;SDS011;27185;52.040;4.490;2024-03-02T16:10:50;2.78;;;0.60;;
41446;SDS011;27185;52.040;4.490;2024-03-02T16:13:37;2.50;;;0.52;;
41446;SDS011;27185;52.040;4.490;2024-03-02T16:16:22;3.83;;;0.73;;
41446;SDS011;27185;52.040;4.490;2024-03-02T16:19:08;2.55;;;0.50;;
41446;SDS011;27185;52.040;4.490;2024-03-02T16:21:54;2.38;;;0.50;;
41446;SDS011;27185;52.040;4.490;2024-03-02T16:24:40;3.00;;;0.50;;
41446;SDS011;27185;52.040;4.490;2024-03-02T16:27:25;2.20;;;0.47;;
41446;SDS011;27185;52.040;4.490;2024-03-02T16:30:12;2.77;;;0.50;;
41446;SDS011;27185;52.040;4.490;2024-03-02T16:32:59;3.80;;;0.77;;
41446;SDS011;27185;52.040;4.490;2024-03-02T16:35:45;3.28;;;0.60;;
41446;SDS011;27185;52.040;4.490;2024-03-02T16:38:33;2.75;;;0.50;;
41446;SDS011;27185;52.040;4.490;2024-03-02T16:41:19;3.13;;;0.50;;
41446;SDS011;27185;52.040;4.490;2024-03-02T16:44:04;1.88;;;0.57;;
41446;SDS011;27185;52.040;4.490;2024-03-02T16:46:50;5.82;;;0.60;;
41446;SDS011;27185;52.040;4.490;2024-03-02T16:49:36;1.08;;;0.40;;
41446;SDS011;27185;52.040;4.490;2024-03-02T16:52:22;2.65;;;0.60;;
41446;SDS011;27185;52.040;4.490;2024-03-02T16:55:09;2.83;;;0.47;;
41446;SDS011;27185;52.040;4.490;2024-03-02T16:57:54;1.88;;;0.50;;
41446;SDS011;27185;52.040;4.490;2024-03-02T17:00:40;2.25;;;0.47;;
41446;SDS011;27185;52.040;4.490;2024-03-02T17:03:26;3.38;;;0.70;;
41446;SDS011;27185;52.040;4.490;2024-03-02T17:06:12;1.85;;;0.50;;
41446;SDS011;27185;52.040;4.490;2024-03-02T17:08:57;2.22;;;0.75;;
41446;SDS011;27185;52.040;4.490;2024-03-02T17:11:43;4.30;;;0.80;;
41446;SDS011;27185;52.040;4.490;2024-03-02T17:14:29;4.63;;;0.70;;